createdAt,value
2023-05-24T00:01:51.053Z,3.40
2023-05-24T00:04:20.171Z,3.20
2023-05-24T00:06:49.130Z,3.00
2023-05-24T00:09:18.080Z,2.57
2023-05-24T00:11:48.374Z,3.17
2023-05-24T00:14:17.184Z,2.47
2023-05-24T00:16:46.945Z,3.03
2023-05-24T00:19:18.934Z,3.00
2023-05-24T00:21:47.993Z,3.00
2023-05-24T00:24:17.368Z,2.63
2023-05-24T00:26:48.541Z,2.87
2023-05-24T00:29:17.163Z,3.00
2023-05-24T00:31:46.016Z,2.77
2023-05-24T00:34:15.030Z,2.97
2023-05-24T00:36:43.609Z,3.37
2023-05-24T00:39:12.523Z,2.77
2023-05-24T00:41:41.083Z,2.87
2023-05-24T00:44:11.651Z,3.13
2023-05-24T00:46:41.042Z,2.90
2023-05-24T00:49:10.554Z,3.33
2023-05-24T00:51:39.484Z,3.40
2023-05-24T00:54:08.692Z,3.10
2023-05-24T00:56:37.355Z,3.23
2023-05-24T00:59:06.410Z,3.07
2023-05-24T01:01:37.456Z,3.57
2023-05-24T01:04:07.581Z,3.53
2023-05-24T01:06:45.355Z,3.40
2023-05-24T01:09:22.907Z,3.40
2023-05-24T01:12:01.874Z,3.50
2023-05-24T01:14:39.640Z,3.00
2023-05-24T01:17:16.787Z,3.10
2023-05-24T01:19:54.563Z,3.30
2023-05-24T01:22:36.619Z,3.33
2023-05-24T01:25:08.869Z,3.83
2023-05-24T01:27:40.432Z,3.30
2023-05-24T01:30:11.355Z,3.83
2023-05-24T01:32:40.310Z,3.43
2023-05-24T01:35:09.931Z,3.67
2023-05-24T01:37:38.597Z,3.10
2023-05-24T01:40:08.631Z,3.10
2023-05-24T01:42:46.411Z,3.70
2023-05-24T01:45:21.302Z,3.13
2023-05-24T01:48:03.546Z,3.70
2023-05-24T01:50:35.982Z,3.57
2023-05-24T01:53:09.098Z,4.13
2023-05-24T01:55:39.824Z,4.27
2023-05-24T01:58:11.492Z,3.60
2023-05-24T02:00:42.390Z,3.70
2023-05-24T02:03:11.828Z,3.43
2023-05-24T02:05:40.971Z,3.57
2023-05-24T02:08:09.772Z,4.23
2023-05-24T02:10:39.840Z,3.77
2023-05-24T02:13:11.141Z,3.83
2023-05-24T02:15:42.223Z,4.00
2023-05-24T02:18:11.491Z,3.37
2023-05-24T02:20:40.215Z,4.10
2023-05-24T02:23:08.967Z,3.90
2023-05-24T02:25:37.820Z,4.53
2023-05-24T02:28:06.253Z,3.63
2023-05-24T02:30:36.416Z,3.80
2023-05-24T02:33:05.640Z,4.00
2023-05-24T02:35:35.004Z,4.07
2023-05-24T02:38:07.064Z,3.70
2023-05-24T02:40:36.002Z,3.80
2023-05-24T02:43:04.847Z,3.73
2023-05-24T02:45:33.420Z,3.87
2023-05-24T02:48:03.962Z,3.67
2023-05-24T02:50:32.695Z,3.40
2023-05-24T02:53:01.872Z,3.97
2023-05-24T02:55:30.510Z,3.90
2023-05-24T02:57:59.324Z,4.00
2023-05-24T03:00:27.994Z,4.17
2023-05-24T03:02:58.006Z,4.20
2023-05-24T03:05:28.190Z,4.10
2023-05-24T03:07:57.135Z,3.90
2023-05-24T03:10:25.706Z,4.03
2023-05-24T03:12:54.232Z,4.13
2023-05-24T03:15:22.953Z,4.13
2023-05-24T03:17:51.993Z,4.40
2023-05-24T03:20:21.779Z,3.97
2023-05-24T03:22:52.115Z,4.30
2023-05-24T03:25:21.051Z,4.20
2023-05-24T03:27:49.727Z,4.67
2023-05-24T03:30:18.212Z,5.63
2023-05-24T03:32:46.838Z,4.40
2023-05-24T03:35:15.730Z,4.73
2023-05-24T03:37:44.574Z,4.70
2023-05-24T03:40:15.275Z,4.37
2023-05-24T03:42:43.812Z,4.60
2023-05-24T03:45:13.115Z,4.40
2023-05-24T03:47:41.941Z,4.80
2023-05-24T03:50:11.543Z,4.87
2023-05-24T03:52:39.997Z,4.93
2023-05-24T03:55:09.303Z,4.93
2023-05-24T03:57:39.657Z,4.80
2023-05-24T04:00:10.807Z,5.03
2023-05-24T04:02:39.805Z,4.83
2023-05-24T04:05:10.580Z,5.57
2023-05-24T04:07:39.128Z,5.37
2023-05-24T04:10:09.042Z,5.20
2023-05-24T04:12:40.240Z,5.43
2023-05-24T04:15:10.237Z,4.93
2023-05-24T04:17:38.879Z,5.23
2023-05-24T04:20:09.113Z,5.90
2023-05-24T04:22:38.023Z,5.43
2023-05-24T04:25:08.025Z,5.73
2023-05-24T04:27:36.588Z,5.30
2023-05-24T04:30:09.610Z,5.23
2023-05-24T04:32:38.460Z,6.17
2023-05-24T04:35:08.317Z,5.97
2023-05-24T04:37:37.105Z,5.97
2023-05-24T04:40:06.346Z,5.40
2023-05-24T04:42:35.057Z,6.23
2023-05-24T04:45:03.748Z,5.50
2023-05-24T04:47:34.285Z,5.27
2023-05-24T04:50:03.721Z,5.93
2023-05-24T04:52:33.375Z,5.67
2023-05-24T04:55:02.214Z,5.73
2023-05-24T04:57:30.674Z,5.73
2023-05-24T04:59:59.829Z,5.73
2023-05-24T05:02:28.471Z,5.97
2023-05-24T05:04:58.727Z,5.83
2023-05-24T05:07:27.263Z,5.47
2023-05-24T05:09:56.546Z,6.37
2023-05-24T05:12:25.157Z,5.97
2023-05-24T05:14:53.952Z,5.87
2023-05-24T05:17:23.233Z,6.20
2023-05-24T05:19:51.825Z,6.33
2023-05-24T05:22:21.765Z,6.67
2023-05-24T05:24:50.450Z,6.20
2023-05-24T05:27:19.260Z,6.40
2023-05-24T05:29:48.113Z,6.30
2023-05-24T05:32:17.161Z,5.87
2023-05-24T05:34:46.129Z,6.00
2023-05-24T05:37:15.673Z,5.40
2023-05-24T05:39:45.800Z,5.87
2023-05-24T05:42:14.722Z,5.67
2023-05-24T05:44:43.279Z,5.37
2023-05-24T05:47:12.089Z,5.37
2023-05-24T05:49:40.909Z,5.00
2023-05-24T05:52:09.634Z,5.00
2023-05-24T05:54:38.223Z,4.50
2023-05-24T05:57:11.404Z,5.13
2023-05-24T05:59:40.053Z,4.40
2023-05-24T06:02:09.105Z,4.60
2023-05-24T06:04:38.061Z,4.43
2023-05-24T06:07:07.401Z,4.73
2023-05-24T06:09:36.742Z,5.10
2023-05-24T06:12:06.455Z,4.80
2023-05-24T06:14:38.797Z,4.50
2023-05-24T06:17:07.574Z,4.97
2023-05-24T06:19:36.347Z,5.37
2023-05-24T06:22:05.241Z,4.27
2023-05-24T06:24:34.931Z,4.27
2023-05-24T06:27:05.424Z,4.50
2023-05-24T06:29:35.979Z,4.70
2023-05-24T06:32:04.765Z,4.27
2023-05-24T06:34:33.611Z,4.63
2023-05-24T06:37:02.920Z,4.67
2023-05-24T06:39:31.529Z,4.17
2023-05-24T06:42:00.366Z,4.13
2023-05-24T06:44:34.569Z,4.57
2023-05-24T06:47:05.962Z,4.20
2023-05-24T06:49:35.276Z,4.40
2023-05-24T06:52:03.953Z,4.53
2023-05-24T06:54:32.577Z,4.57
2023-05-24T06:57:01.457Z,4.67
2023-05-24T06:59:30.224Z,4.53
2023-05-24T07:02:00.614Z,4.80
2023-05-24T07:04:33.404Z,4.77
2023-05-24T07:07:02.737Z,4.23
2023-05-24T07:09:31.681Z,4.23
2023-05-24T07:12:01.028Z,4.23
2023-05-24T07:14:29.782Z,4.37
2023-05-24T07:17:00.283Z,4.27
2023-05-24T07:19:29.950Z,3.67
2023-05-24T07:22:00.509Z,4.13
2023-05-24T07:24:29.861Z,3.77
2023-05-24T07:26:58.709Z,4.10
2023-05-24T07:29:28.086Z,4.20
2023-05-24T07:31:58.314Z,4.17
2023-05-24T07:34:30.344Z,4.07
2023-05-24T07:37:01.108Z,4.13
2023-05-24T07:39:29.781Z,4.80
2023-05-24T07:41:58.744Z,4.43
2023-05-24T07:44:27.832Z,4.17
2023-05-24T07:46:57.591Z,4.10
2023-05-24T07:49:26.659Z,4.10
2023-05-24T07:51:57.392Z,4.30
2023-05-24T07:54:28.257Z,4.27
2023-05-24T07:56:57.865Z,4.07
2023-05-24T07:59:26.549Z,4.03
2023-05-24T08:01:55.412Z,4.17
2023-05-24T08:04:24.126Z,3.90
2023-05-24T08:06:52.932Z,3.73
2023-05-24T08:09:23.018Z,4.30
2023-05-24T08:11:53.089Z,4.40
2023-05-24T08:14:21.914Z,3.67
2023-05-24T08:16:50.828Z,3.90
2023-05-24T08:19:19.605Z,4.67
2023-05-24T08:21:48.443Z,4.90
2023-05-24T08:24:17.125Z,4.73
2023-05-24T08:26:45.946Z,4.40
2023-05-24T08:29:18.027Z,3.90
2023-05-24T08:31:46.674Z,4.33
2023-05-24T08:34:16.013Z,4.10
2023-05-24T08:36:44.812Z,4.23
2023-05-24T08:39:13.303Z,4.00
2023-05-24T08:41:43.605Z,4.10
2023-05-24T08:44:14.368Z,3.93
2023-05-24T08:46:44.632Z,4.33
2023-05-24T08:49:15.420Z,3.60
2023-05-24T08:51:46.423Z,3.60
2023-05-24T08:54:16.186Z,4.17
2023-05-24T08:56:45.757Z,3.60
2023-05-24T08:59:15.227Z,3.70
2023-05-24T09:01:45.822Z,3.83
2023-05-24T09:04:14.960Z,4.00
2023-05-24T09:06:44.244Z,4.03
2023-05-24T09:09:14.182Z,4.40
2023-05-24T09:11:44.692Z,4.47
2023-05-24T09:14:13.631Z,4.10
2023-05-24T09:16:42.842Z,3.77
2023-05-24T09:19:14.244Z,4.30
2023-05-24T09:21:43.018Z,3.87
2023-05-24T09:24:13.557Z,4.53
2023-05-24T09:26:42.158Z,4.37
2023-05-24T09:29:13.831Z,4.60
2023-05-24T09:31:42.708Z,4.43
2023-05-24T09:34:17.689Z,3.83
2023-05-24T09:36:49.873Z,3.30
2023-05-24T09:39:22.532Z,3.87
2023-05-24T09:41:56.917Z,3.67
2023-05-24T09:44:27.325Z,3.90
2023-05-24T09:46:56.166Z,3.37
2023-05-24T09:49:26.537Z,3.93
2023-05-24T09:51:55.461Z,3.97
2023-05-24T09:54:26.213Z,3.43
2023-05-24T09:56:54.943Z,3.40
2023-05-24T09:59:24.215Z,3.77
2023-05-24T10:01:58.435Z,4.20
2023-05-24T10:04:36.111Z,3.60
2023-05-24T10:07:06.252Z,4.20
2023-05-24T10:09:36.023Z,4.10
2023-05-24T10:12:06.200Z,4.13
2023-05-24T10:14:36.990Z,4.10
2023-05-24T10:17:06.826Z,3.80
2023-05-24T10:19:39.032Z,4.03
2023-05-24T10:22:09.325Z,4.13
2023-05-24T10:24:42.801Z,4.07
2023-05-24T10:27:17.600Z,4.17
2023-05-24T10:30:13.684Z,4.30
2023-05-24T10:32:45.665Z,3.90
2023-05-24T10:35:16.795Z,3.60
2023-05-24T10:37:48.180Z,3.93
2023-05-24T10:40:21.799Z,3.40
2023-05-24T10:42:51.518Z,3.83
2023-05-24T10:45:36.189Z,3.90
2023-05-24T10:48:11.913Z,3.57
2023-05-24T10:50:42.950Z,3.70
2023-05-24T10:53:16.073Z,3.40
2023-05-24T10:55:55.465Z,4.23
2023-05-24T10:58:30.757Z,4.40
2023-05-24T11:01:00.302Z,3.50
2023-05-24T11:03:35.342Z,3.93
2023-05-24T11:06:05.413Z,3.90
2023-05-24T11:08:35.828Z,4.03
2023-05-24T11:11:22.549Z,3.80
2023-05-24T11:13:58.441Z,3.73
2023-05-24T11:16:38.078Z,3.77
2023-05-24T11:19:15.317Z,4.33
2023-05-24T11:21:48.287Z,4.60
2023-05-24T11:24:18.737Z,4.90
2023-05-24T11:26:47.923Z,4.27
2023-05-24T11:29:18.538Z,4.70
2023-05-24T11:31:51.313Z,4.33
2023-05-24T11:34:21.027Z,4.67
2023-05-24T11:36:53.486Z,5.00
2023-05-24T11:39:23.743Z,4.23
2023-05-24T11:41:55.224Z,4.47
2023-05-24T11:44:24.086Z,4.70
2023-05-24T11:46:59.194Z,4.63
2023-05-24T11:49:28.263Z,4.40
2023-05-24T11:51:59.758Z,5.33
2023-05-24T11:54:29.325Z,5.10
2023-05-24T11:56:58.394Z,4.23
2023-05-24T11:59:29.032Z,5.03
2023-05-24T12:02:02.054Z,4.17
2023-05-24T12:04:31.581Z,4.37
2023-05-24T12:07:03.561Z,4.43
2023-05-24T12:09:33.281Z,4.30
2023-05-24T12:12:02.458Z,4.87
2023-05-24T12:14:33.023Z,4.10
2023-05-24T12:17:02.346Z,4.67
2023-05-24T12:19:36.024Z,5.33
2023-05-24T12:22:08.805Z,5.10
2023-05-24T12:24:38.592Z,4.67
2023-05-24T12:27:09.112Z,4.30
2023-05-24T12:29:40.761Z,4.60
2023-05-24T12:32:14.784Z,5.00
2023-05-24T12:34:44.487Z,4.60
2023-05-24T12:37:16.254Z,4.63
2023-05-24T12:39:45.372Z,4.63
2023-05-24T12:42:14.694Z,4.53
2023-05-24T12:44:45.254Z,4.23
2023-05-24T12:47:14.446Z,4.17
2023-05-24T12:49:43.914Z,4.27
2023-05-24T12:52:14.827Z,4.20
2023-05-24T12:54:43.104Z,4.67
2023-05-24T12:57:12.127Z,4.10
2023-05-24T12:59:40.796Z,4.00
2023-05-24T13:02:09.884Z,4.60
2023-05-24T13:04:39.057Z,4.37
2023-05-24T13:07:08.421Z,4.23
2023-05-24T13:09:38.662Z,4.20
2023-05-24T13:12:08.424Z,3.90
2023-05-24T13:14:38.447Z,4.63
2023-05-24T13:17:08.030Z,3.93
2023-05-24T13:19:36.802Z,3.97
2023-05-24T13:22:05.756Z,4.13
2023-05-24T13:24:34.322Z,4.47
2023-05-24T13:27:05.028Z,4.07
2023-05-24T13:29:42.238Z,4.80
2023-05-24T13:32:11.632Z,3.70
2023-05-24T13:34:40.840Z,4.70
2023-05-24T13:37:09.897Z,4.27
2023-05-24T13:39:39.587Z,4.70
2023-05-24T13:42:10.991Z,4.40
2023-05-24T13:44:40.022Z,5.47
2023-05-24T13:47:09.078Z,4.63
2023-05-24T13:49:38.264Z,4.50
2023-05-24T13:52:06.949Z,4.50
2023-05-24T13:54:35.219Z,4.40
2023-05-24T13:57:03.700Z,4.70
2023-05-24T13:59:34.525Z,4.60
2023-05-24T14:02:03.525Z,4.67
2023-05-24T14:04:32.309Z,4.47
2023-05-24T14:07:01.445Z,4.50
2023-05-24T14:09:30.297Z,4.70
2023-05-24T14:11:59.130Z,4.80
2023-05-24T14:17:01.560Z,4.37
2023-05-24T14:19:29.997Z,4.97
2023-05-24T14:21:58.778Z,4.37
2023-05-24T14:24:27.833Z,4.73
2023-05-24T14:26:56.781Z,4.30
2023-05-24T14:29:25.569Z,4.67
2023-05-24T14:31:54.494Z,4.50
2023-05-24T14:34:24.740Z,3.90
2023-05-24T14:36:53.515Z,4.30
2023-05-24T14:39:22.231Z,4.60
2023-05-24T14:41:51.078Z,4.60
2023-05-24T14:44:19.766Z,4.90
2023-05-24T14:46:48.604Z,4.83
2023-05-24T14:49:17.234Z,4.73
2023-05-24T14:51:49.792Z,4.33
2023-05-24T14:54:18.225Z,4.30
2023-05-24T14:56:46.969Z,5.53
2023-05-24T14:59:16.471Z,4.57
2023-05-24T15:01:45.399Z,4.67
2023-05-24T15:04:14.204Z,5.27
2023-05-24T15:06:42.874Z,4.57
2023-05-24T15:09:13.796Z,4.93
2023-05-24T15:11:42.702Z,4.57
2023-05-24T15:14:11.677Z,4.33
2023-05-24T15:16:40.796Z,4.70
2023-05-24T15:19:10.167Z,4.70
2023-05-24T15:21:39.693Z,4.47
2023-05-24T15:24:09.168Z,4.57
2023-05-24T15:26:39.772Z,4.70
2023-05-24T15:29:08.330Z,4.90
2023-05-24T15:31:36.926Z,4.43
2023-05-24T15:34:06.074Z,4.53
2023-05-24T15:36:34.651Z,4.40
2023-05-24T15:39:03.455Z,4.37
2023-05-24T15:41:32.127Z,4.47
2023-05-24T15:44:09.007Z,4.20
2023-05-24T15:46:38.291Z,4.50
2023-05-24T15:49:06.979Z,4.07
2023-05-24T15:54:08.666Z,4.40
2023-05-24T15:56:37.292Z,4.33
2023-05-24T15:59:07.700Z,4.43
2023-05-24T16:01:37.139Z,4.27
2023-05-24T16:04:05.881Z,4.50
2023-05-24T16:06:34.798Z,4.17
2023-05-24T16:09:05.728Z,3.93
2023-05-24T16:11:34.028Z,4.27
2023-05-24T16:14:03.666Z,3.90
2023-05-24T16:16:34.114Z,3.87
2023-05-24T16:19:02.955Z,3.80
2023-05-24T16:21:33.084Z,4.00
2023-05-24T16:24:03.533Z,3.77
2023-05-24T16:26:32.466Z,3.60
2023-05-24T16:29:01.850Z,4.00
2023-05-24T16:31:33.216Z,3.70
2023-05-24T16:34:02.195Z,3.70
2023-05-24T16:36:31.660Z,3.97
2023-05-24T16:39:00.462Z,3.87
2023-05-24T16:41:35.145Z,3.83
2023-05-24T16:44:04.003Z,3.87
2023-05-24T16:46:34.845Z,3.50
2023-05-24T16:49:04.290Z,3.50
2023-05-24T16:51:33.080Z,2.93
2023-05-24T16:54:01.887Z,3.40
2023-05-24T16:56:30.930Z,3.53
2023-05-24T16:58:59.910Z,3.80
2023-05-24T17:01:28.973Z,3.57
2023-05-24T17:03:59.196Z,4.27
2023-05-24T17:06:28.148Z,3.47
2023-05-24T17:08:56.689Z,4.03
2023-05-24T17:11:25.729Z,3.97
2023-05-24T17:13:54.377Z,3.43
2023-05-24T17:16:23.394Z,3.40
2023-05-24T17:18:52.745Z,3.50
2023-05-24T17:21:23.083Z,3.20
2023-05-24T17:23:51.552Z,3.33
2023-05-24T17:26:20.500Z,2.77
2023-05-24T17:28:50.973Z,2.50
2023-05-24T17:31:19.719Z,2.43
2023-05-24T17:33:48.147Z,2.80
2023-05-24T17:36:17.224Z,2.80
2023-05-24T17:38:47.467Z,2.40
2023-05-24T17:41:16.206Z,2.80
2023-05-24T17:43:45.250Z,2.90
2023-05-24T17:46:15.110Z,3.10
2023-05-24T17:48:44.620Z,2.90
2023-05-24T17:51:14.067Z,2.60
2023-05-24T17:53:43.720Z,2.40
2023-05-24T17:56:14.598Z,2.77
2023-05-24T17:58:44.948Z,2.90
2023-05-24T18:01:15.529Z,3.10
2023-05-24T18:03:44.245Z,3.43
2023-05-24T18:06:13.064Z,3.10
2023-05-24T18:08:43.990Z,2.90
2023-05-24T18:11:16.179Z,3.00
2023-05-24T18:13:45.050Z,2.83
2023-05-24T18:16:14.879Z,3.60
2023-05-24T18:18:44.329Z,3.00
2023-05-24T18:21:13.449Z,3.00
2023-05-24T18:23:42.612Z,3.10
2023-05-24T18:26:12.646Z,3.10
2023-05-24T18:28:43.078Z,3.20
2023-05-24T18:31:15.235Z,3.07
2023-05-24T18:33:43.904Z,3.40
2023-05-24T18:36:12.832Z,3.10
2023-05-24T18:38:41.506Z,3.07
2023-05-24T18:41:12.580Z,3.13
2023-05-24T18:43:44.384Z,3.20
2023-05-24T18:46:15.336Z,3.13
2023-05-24T18:48:44.472Z,3.70
2023-05-24T18:51:13.413Z,3.53
2023-05-24T18:53:42.203Z,3.50
2023-05-24T18:56:10.787Z,3.30
2023-05-24T18:58:39.762Z,3.30
2023-05-24T19:01:10.546Z,3.60
2023-05-24T19:03:41.826Z,3.60
2023-05-24T19:06:10.821Z,3.50
2023-05-24T19:08:39.355Z,3.50
2023-05-24T19:11:08.286Z,3.53
2023-05-24T19:13:36.881Z,3.20
2023-05-24T19:16:05.565Z,3.30
2023-05-24T19:18:35.554Z,3.43
2023-05-24T19:21:04.406Z,3.23
2023-05-24T19:23:33.276Z,3.47
2023-05-24T19:26:02.104Z,3.23
2023-05-24T19:28:30.736Z,3.30
2023-05-24T19:31:02.787Z,3.30
2023-05-24T19:33:31.726Z,3.23
2023-05-24T19:36:01.780Z,3.10
2023-05-24T19:38:30.711Z,3.10
2023-05-24T19:40:59.281Z,3.00
2023-05-24T19:43:27.877Z,3.20
2023-05-24T19:45:57.938Z,3.20
2023-05-24T19:48:27.536Z,3.10
2023-05-24T19:50:56.439Z,3.07
2023-05-24T19:53:28.814Z,3.30
2023-05-24T19:55:57.651Z,3.10
2023-05-24T19:58:27.179Z,3.37
2023-05-24T20:00:55.869Z,2.90
2023-05-24T20:03:25.087Z,3.20
2023-05-24T20:05:54.258Z,3.47
2023-05-24T20:08:23.094Z,3.80
2023-05-24T20:10:53.620Z,3.37
2023-05-24T20:13:22.963Z,3.47
2023-05-24T20:15:53.644Z,3.60
2023-05-24T20:18:24.195Z,3.10
2023-05-24T20:20:52.830Z,3.00
2023-05-24T20:23:21.653Z,2.97
2023-05-24T20:25:50.149Z,3.70
2023-05-24T20:28:29.379Z,3.73
2023-05-24T20:30:59.847Z,3.20
2023-05-24T20:33:28.806Z,3.37
2023-05-24T20:35:57.648Z,3.00
2023-05-24T20:38:26.472Z,3.70
2023-05-24T20:40:55.312Z,3.47
2023-05-24T20:43:25.427Z,3.30
2023-05-24T20:45:54.159Z,3.27
2023-05-24T20:48:23.760Z,3.00
2023-05-24T20:50:52.646Z,3.37
2023-05-24T20:53:21.193Z,3.60
2023-05-24T20:55:49.997Z,3.20
2023-05-24T20:58:19.137Z,3.77
2023-05-24T21:00:49.691Z,3.50
2023-05-24T21:03:18.901Z,4.00
2023-05-24T21:05:47.776Z,3.80
2023-05-24T21:08:16.736Z,3.60
2023-05-24T21:10:45.619Z,3.50
2023-05-24T21:13:14.130Z,3.50
2023-05-24T21:15:44.714Z,3.77
2023-05-24T21:18:15.604Z,3.43
2023-05-24T21:20:44.471Z,3.37
2023-05-24T21:23:13.055Z,3.37
2023-05-24T21:25:41.857Z,3.60
2023-05-24T21:28:10.817Z,3.53
2023-05-24T21:30:39.711Z,3.13
2023-05-24T21:33:08.585Z,4.10
2023-05-24T21:35:38.970Z,3.30
2023-05-24T21:38:07.778Z,3.37
2023-05-24T21:40:36.403Z,3.83
2023-05-24T21:43:05.618Z,3.43
2023-05-24T21:45:34.400Z,3.30
2023-05-24T21:48:03.182Z,3.50
2023-05-24T21:50:32.044Z,3.27
2023-05-24T21:53:03.062Z,3.40
2023-05-24T21:55:31.546Z,3.20
2023-05-24T21:58:00.312Z,3.60
2023-05-24T22:00:29.270Z,3.30
2023-05-24T22:02:57.975Z,3.20
2023-05-24T22:05:27.863Z,3.33
2023-05-24T22:07:57.058Z,3.20
2023-05-24T22:10:27.491Z,3.63
2023-05-24T22:12:56.135Z,3.50
2023-05-24T22:15:24.960Z,3.50
2023-05-24T22:17:53.285Z,3.17
2023-05-24T22:20:22.846Z,3.27
2023-05-24T22:22:53.703Z,2.97
2023-05-24T22:25:22.824Z,3.67
2023-05-24T22:27:53.568Z,3.73
2023-05-24T22:30:22.569Z,3.60
2023-05-24T22:32:51.661Z,3.33
2023-05-24T22:35:20.688Z,3.60
2023-05-24T22:37:49.167Z,3.37
2023-05-24T22:40:18.401Z,3.47
2023-05-24T22:42:48.500Z,3.07
2023-05-24T22:45:19.347Z,3.33
2023-05-24T22:47:49.529Z,3.17
2023-05-24T22:50:18.729Z,3.67
2023-05-24T22:52:48.690Z,3.50
2023-05-24T22:55:17.293Z,3.33
2023-05-24T22:57:46.368Z,3.33
2023-05-24T23:00:16.057Z,3.73
2023-05-24T23:02:47.313Z,3.57
2023-05-24T23:05:16.018Z,3.90
2023-05-24T23:07:44.890Z,3.57
2023-05-24T23:10:13.464Z,3.90
2023-05-24T23:12:43.182Z,3.37
2023-05-24T23:15:18.644Z,3.37
2023-05-24T23:17:52.507Z,3.30
2023-05-24T23:20:21.643Z,3.03
2023-05-24T23:22:50.319Z,3.20
2023-05-24T23:25:19.103Z,3.60
2023-05-24T23:27:47.876Z,3.57
2023-05-24T23:30:17.140Z,3.60
2023-05-24T23:32:45.893Z,3.60
2023-05-24T23:35:16.109Z,3.43
2023-05-24T23:37:44.670Z,3.57
2023-05-24T23:40:14.215Z,3.50
2023-05-24T23:42:42.782Z,3.50
2023-05-24T23:45:12.091Z,3.83
2023-05-24T23:47:41.190Z,3.80
2023-05-24T23:50:10.811Z,3.70
2023-05-24T23:52:40.773Z,3.50
2023-05-24T23:55:09.992Z,3.73
2023-05-24T23:57:42.461Z,4.37
